sensor_id;sensor_type;location;lat;lon;timestamp;P1;durP1;ratioP1;P2;durP2;ratioP2
4232;SDS011;2130;48.472;11.934;2023-11-19T00:01:25;7.50;;;1.10;;
4232;SDS011;2130;48.472;11.934;2023-11-19T00:03:53;7.30;;;1.00;;
4232;SDS011;2130;48.472;11.934;2023-11-19T00:06:22;7.53;;;0.80;;
4232;SDS011;2130;48.472;11.934;2023-11-19T00:08:50;7.13;;;0.90;;
4232;SDS011;2130;48.472;11.934;2023-11-19T00:11:18;7.13;;;0.90;;
4232;SDS011;2130;48.472;11.934;2023-11-19T00:13:46;6.70;;;0.90;;
4232;SDS011;2130;48.472;11.934;2023-11-19T00:16:15;7.10;;;1.10;;
4232;SDS011;2130;48.472;11.934;2023-11-19T00:18:45;7.00;;;1.10;;
4232;SDS011;2130;48.472;11.934;2023-11-19T00:21:14;7.13;;;1.10;;
4232;SDS011;2130;48.472;11.934;2023-11-19T00:23:42;7.13;;;1.00;;
4232;SDS011;2130;48.472;11.934;2023-11-19T00:26:11;6.63;;;0.83;;
4232;SDS011;2130;48.472;11.934;2023-11-19T00:28:44;6.63;;;1.03;;
4232;SDS011;2130;48.472;11.934;2023-11-19T00:31:14;6.57;;;0.90;;
4232;SDS011;2130;48.472;11.934;2023-11-19T00:33:43;7.63;;;1.07;;
4232;SDS011;2130;48.472;11.934;2023-11-19T00:36:16;7.57;;;1.00;;
4232;SDS011;2130;48.472;11.934;2023-11-19T00:38:45;7.43;;;0.90;;
4232;SDS011;2130;48.472;11.934;2023-11-19T00:41:13;7.90;;;1.00;;
4232;SDS011;2130;48.472;11.934;2023-11-19T00:43:43;6.97;;;1.20;;
4232;SDS011;2130;48.472;11.934;2023-11-19T00:46:12;7.17;;;1.07;;
4232;SDS011;2130;48.472;11.934;2023-11-19T00:48:40;6.50;;;0.80;;
4232;SDS011;2130;48.472;11.934;2023-11-19T00:51:11;7.03;;;0.90;;
4232;SDS011;2130;48.472;11.934;2023-11-19T00:53:41;7.70;;;1.27;;
4232;SDS011;2130;48.472;11.934;2023-11-19T00:56:10;7.87;;;1.23;;
4232;SDS011;2130;48.472;11.934;2023-11-19T00:58:39;7.20;;;1.07;;
4232;SDS011;2130;48.472;11.934;2023-11-19T01:01:07;7.10;;;1.30;;
4232;SDS011;2130;48.472;11.934;2023-11-19T01:03:36;7.40;;;1.10;;
4232;SDS011;2130;48.472;11.934;2023-11-19T01:06:05;7.10;;;1.23;;
4232;SDS011;2130;48.472;11.934;2023-11-19T01:08:36;7.30;;;1.30;;
4232;SDS011;2130;48.472;11.934;2023-11-19T01:11:05;7.20;;;1.27;;
4232;SDS011;2130;48.472;11.934;2023-11-19T01:13:34;7.17;;;1.27;;
4232;SDS011;2130;48.472;11.934;2023-11-19T01:16:03;6.70;;;1.27;;
4232;SDS011;2130;48.472;11.934;2023-11-19T01:18:31;7.40;;;1.40;;
4232;SDS011;2130;48.472;11.934;2023-11-19T01:21:00;6.73;;;1.00;;
4232;SDS011;2130;48.472;11.934;2023-11-19T01:23:28;7.50;;;1.33;;
4232;SDS011;2130;48.472;11.934;2023-11-19T01:25:56;6.23;;;1.10;;
4232;SDS011;2130;48.472;11.934;2023-11-19T01:28:26;7.30;;;1.43;;
4232;SDS011;2130;48.472;11.934;2023-11-19T01:30:54;7.70;;;1.40;;
4232;SDS011;2130;48.472;11.934;2023-11-19T01:33:22;7.17;;;1.40;;
4232;SDS011;2130;48.472;11.934;2023-11-19T01:35:50;7.10;;;1.50;;
4232;SDS011;2130;48.472;11.934;2023-11-19T01:38:19;8.30;;;1.40;;
4232;SDS011;2130;48.472;11.934;2023-11-19T01:40:47;7.30;;;1.43;;
4232;SDS011;2130;48.472;11.934;2023-11-19T01:46:01;7.30;;;1.10;;
4232;SDS011;2130;48.472;11.934;2023-11-19T01:48:30;7.50;;;1.43;;
4232;SDS011;2130;48.472;11.934;2023-11-19T01:50:59;7.93;;;1.47;;
4232;SDS011;2130;48.472;11.934;2023-11-19T01:53:29;8.50;;;1.30;;
4232;SDS011;2130;48.472;11.934;2023-11-19T01:55:58;7.43;;;1.23;;
4232;SDS011;2130;48.472;11.934;2023-11-19T01:58:27;7.70;;;1.50;;
4232;SDS011;2130;48.472;11.934;2023-11-19T02:00:58;7.30;;;1.30;;
4232;SDS011;2130;48.472;11.934;2023-11-19T02:03:26;7.50;;;1.40;;
4232;SDS011;2130;48.472;11.934;2023-11-19T02:05:56;6.33;;;1.10;;
4232;SDS011;2130;48.472;11.934;2023-11-19T02:08:24;7.63;;;1.17;;
4232;SDS011;2130;48.472;11.934;2023-11-19T02:10:53;7.37;;;1.37;;
4232;SDS011;2130;48.472;11.934;2023-11-19T02:13:24;7.90;;;1.60;;
4232;SDS011;2130;48.472;11.934;2023-11-19T02:15:53;7.70;;;1.23;;
4232;SDS011;2130;48.472;11.934;2023-11-19T02:18:24;7.10;;;1.20;;
4232;SDS011;2130;48.472;11.934;2023-11-19T02:20:55;7.50;;;1.40;;
4232;SDS011;2130;48.472;11.934;2023-11-19T02:23:23;8.03;;;1.50;;
4232;SDS011;2130;48.472;11.934;2023-11-19T02:25:56;7.70;;;1.33;;
4232;SDS011;2130;48.472;11.934;2023-11-19T02:28:34;7.33;;;1.40;;
4232;SDS011;2130;48.472;11.934;2023-11-19T02:31:04;8.23;;;1.40;;
4232;SDS011;2130;48.472;11.934;2023-11-19T02:33:36;7.60;;;1.30;;
4232;SDS011;2130;48.472;11.934;2023-11-19T02:36:05;6.57;;;1.20;;
4232;SDS011;2130;48.472;11.934;2023-11-19T02:38:34;6.70;;;1.30;;
4232;SDS011;2130;48.472;11.934;2023-11-19T02:41:03;7.00;;;1.40;;
4232;SDS011;2130;48.472;11.934;2023-11-19T02:43:34;6.67;;;1.23;;
4232;SDS011;2130;48.472;11.934;2023-11-19T02:46:02;7.70;;;1.70;;
4232;SDS011;2130;48.472;11.934;2023-11-19T02:48:36;6.40;;;1.13;;
4232;SDS011;2130;48.472;11.934;2023-11-19T02:51:05;6.63;;;1.50;;
4232;SDS011;2130;48.472;11.934;2023-11-19T02:53:36;6.80;;;1.30;;
4232;SDS011;2130;48.472;11.934;2023-11-19T02:56:07;6.60;;;1.40;;
4232;SDS011;2130;48.472;11.934;2023-11-19T02:58:51;7.97;;;1.30;;
4232;SDS011;2130;48.472;11.934;2023-11-19T03:01:23;8.03;;;1.47;;
4232;SDS011;2130;48.472;11.934;2023-11-19T03:03:58;9.50;;;1.03;;
4232;SDS011;2130;48.472;11.934;2023-11-19T03:06:28;7.00;;;1.40;;
4232;SDS011;2130;48.472;11.934;2023-11-19T03:08:57;7.73;;;1.70;;
4232;SDS011;2130;48.472;11.934;2023-11-19T03:11:32;6.83;;;1.30;;
4232;SDS011;2130;48.472;11.934;2023-11-19T03:14:03;7.53;;;1.50;;
4232;SDS011;2130;48.472;11.934;2023-11-19T03:16:31;7.27;;;1.10;;
4232;SDS011;2130;48.472;11.934;2023-11-19T03:19:00;6.80;;;1.40;;
4232;SDS011;2130;48.472;11.934;2023-11-19T03:21:28;8.00;;;1.30;;
4232;SDS011;2130;48.472;11.934;2023-11-19T03:23:56;7.33;;;1.30;;
4232;SDS011;2130;48.472;11.934;2023-11-19T03:26:26;7.00;;;1.47;;
4232;SDS011;2130;48.472;11.934;2023-11-19T03:28:55;6.47;;;1.00;;
4232;SDS011;2130;48.472;11.934;2023-11-19T03:31:25;6.50;;;1.20;;
4232;SDS011;2130;48.472;11.934;2023-11-19T03:33:53;6.33;;;1.07;;
4232;SDS011;2130;48.472;11.934;2023-11-19T03:36:25;6.77;;;1.30;;
4232;SDS011;2130;48.472;11.934;2023-11-19T03:38:53;6.80;;;1.10;;
4232;SDS011;2130;48.472;11.934;2023-11-19T03:41:21;7.30;;;1.13;;
4232;SDS011;2130;48.472;11.934;2023-11-19T03:43:49;6.53;;;1.20;;
4232;SDS011;2130;48.472;11.934;2023-11-19T03:46:18;6.90;;;1.20;;
4232;SDS011;2130;48.472;11.934;2023-11-19T03:48:48;10.00;;;1.30;;
4232;SDS011;2130;48.472;11.934;2023-11-19T03:51:17;7.00;;;1.10;;
4232;SDS011;2130;48.472;11.934;2023-11-19T03:53:45;6.57;;;1.40;;
4232;SDS011;2130;48.472;11.934;2023-11-19T03:56:14;6.57;;;1.40;;
4232;SDS011;2130;48.472;11.934;2023-11-19T03:58:42;7.17;;;1.00;;
4232;SDS011;2130;48.472;11.934;2023-11-19T04:01:15;6.60;;;1.30;;
4232;SDS011;2130;48.472;11.934;2023-11-19T04:03:44;6.50;;;1.17;;
4232;SDS011;2130;48.472;11.934;2023-11-19T04:06:17;6.57;;;1.10;;
4232;SDS011;2130;48.472;11.934;2023-11-19T04:08:46;6.50;;;1.40;;
4232;SDS011;2130;48.472;11.934;2023-11-19T04:11:14;7.07;;;1.33;;
4232;SDS011;2130;48.472;11.934;2023-11-19T04:13:43;5.80;;;1.00;;
4232;SDS011;2130;48.472;11.934;2023-11-19T04:16:11;6.70;;;1.20;;
4232;SDS011;2130;48.472;11.934;2023-11-19T04:18:41;6.33;;;1.20;;
4232;SDS011;2130;48.472;11.934;2023-11-19T04:21:09;8.97;;;1.57;;
4232;SDS011;2130;48.472;11.934;2023-11-19T04:23:39;6.50;;;1.50;;
4232;SDS011;2130;48.472;11.934;2023-11-19T04:26:08;5.83;;;0.93;;
4232;SDS011;2130;48.472;11.934;2023-11-19T04:28:37;7.03;;;1.47;;
4232;SDS011;2130;48.472;11.934;2023-11-19T04:31:06;6.10;;;1.00;;
4232;SDS011;2130;48.472;11.934;2023-11-19T04:33:36;7.10;;;1.40;;
4232;SDS011;2130;48.472;11.934;2023-11-19T04:36:04;7.80;;;1.40;;
4232;SDS011;2130;48.472;11.934;2023-11-19T04:38:33;7.10;;;1.63;;
4232;SDS011;2130;48.472;11.934;2023-11-19T04:41:03;7.53;;;1.37;;
4232;SDS011;2130;48.472;11.934;2023-11-19T04:43:32;6.30;;;1.33;;
4232;SDS011;2130;48.472;11.934;2023-11-19T04:46:03;6.53;;;1.40;;
4232;SDS011;2130;48.472;11.934;2023-11-19T04:48:31;9.87;;;1.60;;
4232;SDS011;2130;48.472;11.934;2023-11-19T04:51:04;6.27;;;1.13;;
4232;SDS011;2130;48.472;11.934;2023-11-19T04:53:32;7.67;;;1.43;;
4232;SDS011;2130;48.472;11.934;2023-11-19T04:56:00;6.43;;;1.30;;
4232;SDS011;2130;48.472;11.934;2023-11-19T04:58:30;7.23;;;1.20;;
4232;SDS011;2130;48.472;11.934;2023-11-19T05:00:58;6.20;;;1.10;;
4232;SDS011;2130;48.472;11.934;2023-11-19T05:03:27;6.10;;;1.10;;
4232;SDS011;2130;48.472;11.934;2023-11-19T05:05:55;6.60;;;1.27;;
4232;SDS011;2130;48.472;11.934;2023-11-19T05:08:23;6.50;;;1.10;;
4232;SDS011;2130;48.472;11.934;2023-11-19T05:10:51;6.33;;;1.00;;
4232;SDS011;2130;48.472;11.934;2023-11-19T05:13:19;6.43;;;1.27;;
4232;SDS011;2130;48.472;11.934;2023-11-19T05:15:50;6.90;;;1.13;;
4232;SDS011;2130;48.472;11.934;2023-11-19T05:18:18;6.30;;;1.13;;
4232;SDS011;2130;48.472;11.934;2023-11-19T05:20:47;6.20;;;1.13;;
4232;SDS011;2130;48.472;11.934;2023-11-19T05:23:15;6.13;;;1.00;;
4232;SDS011;2130;48.472;11.934;2023-11-19T05:25:46;6.90;;;1.20;;
4232;SDS011;2130;48.472;11.934;2023-11-19T05:28:14;6.40;;;1.20;;
4232;SDS011;2130;48.472;11.934;2023-11-19T05:30:42;6.30;;;1.10;;
4232;SDS011;2130;48.472;11.934;2023-11-19T05:33:15;6.10;;;1.00;;
4232;SDS011;2130;48.472;11.934;2023-11-19T05:35:43;6.43;;;1.20;;
4232;SDS011;2130;48.472;11.934;2023-11-19T05:38:11;7.33;;;1.37;;
4232;SDS011;2130;48.472;11.934;2023-11-19T05:40:40;7.10;;;1.40;;
4232;SDS011;2130;48.472;11.934;2023-11-19T05:43:08;5.80;;;1.00;;
4232;SDS011;2130;48.472;11.934;2023-11-19T05:45:37;6.67;;;1.30;;
4232;SDS011;2130;48.472;11.934;2023-11-19T05:48:05;6.23;;;1.03;;
4232;SDS011;2130;48.472;11.934;2023-11-19T05:50:35;6.40;;;1.10;;
4232;SDS011;2130;48.472;11.934;2023-11-19T05:53:03;7.07;;;1.43;;
4232;SDS011;2130;48.472;11.934;2023-11-19T05:55:35;7.17;;;1.40;;
4232;SDS011;2130;48.472;11.934;2023-11-19T05:58:11;9.43;;;2.17;;
4232;SDS011;2130;48.472;11.934;2023-11-19T06:00:39;7.20;;;1.50;;
4232;SDS011;2130;48.472;11.934;2023-11-19T06:03:08;6.90;;;1.40;;
4232;SDS011;2130;48.472;11.934;2023-11-19T06:05:45;6.63;;;1.40;;
4232;SDS011;2130;48.472;11.934;2023-11-19T06:08:13;7.97;;;1.40;;
4232;SDS011;2130;48.472;11.934;2023-11-19T06:10:42;6.60;;;1.23;;
4232;SDS011;2130;48.472;11.934;2023-11-19T06:13:12;6.33;;;1.23;;
4232;SDS011;2130;48.472;11.934;2023-11-19T06:15:42;7.20;;;1.50;;
4232;SDS011;2130;48.472;11.934;2023-11-19T06:18:10;7.70;;;1.80;;
4232;SDS011;2130;48.472;11.934;2023-11-19T06:20:40;6.40;;;1.30;;
4232;SDS011;2130;48.472;11.934;2023-11-19T06:23:10;8.03;;;1.77;;
4232;SDS011;2130;48.472;11.934;2023-11-19T06:25:39;8.40;;;1.87;;
4232;SDS011;2130;48.472;11.934;2023-11-19T06:28:08;7.47;;;1.80;;
4232;SDS011;2130;48.472;11.934;2023-11-19T06:30:36;6.80;;;1.50;;
4232;SDS011;2130;48.472;11.934;2023-11-19T06:33:05;8.93;;;1.60;;
4232;SDS011;2130;48.472;11.934;2023-11-19T06:35:34;6.70;;;1.57;;
4232;SDS011;2130;48.472;11.934;2023-11-19T06:38:03;6.10;;;1.33;;
4232;SDS011;2130;48.472;11.934;2023-11-19T06:40:33;6.97;;;1.37;;
4232;SDS011;2130;48.472;11.934;2023-11-19T06:43:02;5.77;;;1.20;;
4232;SDS011;2130;48.472;11.934;2023-11-19T06:45:31;7.07;;;1.40;;
4232;SDS011;2130;48.472;11.934;2023-11-19T06:48:00;6.70;;;1.50;;
4232;SDS011;2130;48.472;11.934;2023-11-19T06:50:30;7.17;;;1.80;;
4232;SDS011;2130;48.472;11.934;2023-11-19T06:52:58;8.93;;;2.00;;
4232;SDS011;2130;48.472;11.934;2023-11-19T06:55:26;7.03;;;1.30;;
4232;SDS011;2130;48.472;11.934;2023-11-19T06:57:56;6.13;;;1.50;;
4232;SDS011;2130;48.472;11.934;2023-11-19T07:00:25;6.13;;;1.40;;
4232;SDS011;2130;48.472;11.934;2023-11-19T07:02:53;8.00;;;1.67;;
4232;SDS011;2130;48.472;11.934;2023-11-19T07:05:22;6.20;;;1.27;;
4232;SDS011;2130;48.472;11.934;2023-11-19T07:07:51;8.63;;;1.30;;
4232;SDS011;2130;48.472;11.934;2023-11-19T07:10:20;7.57;;;1.80;;
4232;SDS011;2130;48.472;11.934;2023-11-19T07:12:48;6.80;;;1.50;;
4232;SDS011;2130;48.472;11.934;2023-11-19T07:15:19;6.90;;;1.83;;
4232;SDS011;2130;48.472;11.934;2023-11-19T07:17:47;6.10;;;1.40;;
4232;SDS011;2130;48.472;11.934;2023-11-19T07:20:28;6.70;;;1.20;;
4232;SDS011;2130;48.472;11.934;2023-11-19T07:22:58;6.03;;;0.90;;
4232;SDS011;2130;48.472;11.934;2023-11-19T07:25:26;5.73;;;1.00;;
4232;SDS011;2130;48.472;11.934;2023-11-19T07:27:54;4.90;;;0.80;;
4232;SDS011;2130;48.472;11.934;2023-11-19T07:30:24;5.00;;;0.87;;
4232;SDS011;2130;48.472;11.934;2023-11-19T07:32:52;4.53;;;0.80;;
4232;SDS011;2130;48.472;11.934;2023-11-19T07:35:20;5.67;;;1.00;;
4232;SDS011;2130;48.472;11.934;2023-11-19T07:37:49;5.43;;;1.03;;
4232;SDS011;2130;48.472;11.934;2023-11-19T07:40:17;4.63;;;0.80;;
4232;SDS011;2130;48.472;11.934;2023-11-19T07:42:45;4.73;;;0.90;;
4232;SDS011;2130;48.472;11.934;2023-11-19T07:45:14;7.40;;;1.70;;
4232;SDS011;2130;48.472;11.934;2023-11-19T07:47:43;6.53;;;1.30;;
4232;SDS011;2130;48.472;11.934;2023-11-19T07:50:12;4.97;;;1.10;;
4232;SDS011;2130;48.472;11.934;2023-11-19T07:52:41;5.40;;;1.10;;
4232;SDS011;2130;48.472;11.934;2023-11-19T07:55:13;6.50;;;1.17;;
4232;SDS011;2130;48.472;11.934;2023-11-19T07:57:42;5.63;;;1.33;;
4232;SDS011;2130;48.472;11.934;2023-11-19T08:00:11;4.87;;;1.27;;
4232;SDS011;2130;48.472;11.934;2023-11-19T08:02:40;4.80;;;1.20;;
4232;SDS011;2130;48.472;11.934;2023-11-19T08:05:09;4.53;;;1.20;;
4232;SDS011;2130;48.472;11.934;2023-11-19T08:07:38;3.97;;;0.90;;
4232;SDS011;2130;48.472;11.934;2023-11-19T08:10:07;4.20;;;1.03;;
4232;SDS011;2130;48.472;11.934;2023-11-19T08:12:42;4.23;;;1.00;;
4232;SDS011;2130;48.472;11.934;2023-11-19T08:15:10;3.77;;;1.10;;
4232;SDS011;2130;48.472;11.934;2023-11-19T08:17:38;4.33;;;0.80;;
4232;SDS011;2130;48.472;11.934;2023-11-19T08:20:07;3.57;;;0.80;;
4232;SDS011;2130;48.472;11.934;2023-11-19T08:22:38;3.97;;;0.80;;
4232;SDS011;2130;48.472;11.934;2023-11-19T08:25:06;4.43;;;0.90;;
4232;SDS011;2130;48.472;11.934;2023-11-19T08:27:35;3.80;;;0.80;;
4232;SDS011;2130;48.472;11.934;2023-11-19T08:30:04;2.87;;;0.70;;
4232;SDS011;2130;48.472;11.934;2023-11-19T08:32:34;3.53;;;0.70;;
4232;SDS011;2130;48.472;11.934;2023-11-19T08:35:03;3.10;;;0.77;;
4232;SDS011;2130;48.472;11.934;2023-11-19T08:37:33;3.90;;;0.90;;
4232;SDS011;2130;48.472;11.934;2023-11-19T08:40:03;2.33;;;0.70;;
4232;SDS011;2130;48.472;11.934;2023-11-19T08:42:33;3.23;;;0.70;;
4232;SDS011;2130;48.472;11.934;2023-11-19T08:45:02;3.40;;;0.90;;
4232;SDS011;2130;48.472;11.934;2023-11-19T08:47:31;3.50;;;0.83;;
4232;SDS011;2130;48.472;11.934;2023-11-19T08:50:00;3.10;;;0.70;;
4232;SDS011;2130;48.472;11.934;2023-11-19T08:52:30;3.03;;;0.80;;
4232;SDS011;2130;48.472;11.934;2023-11-19T08:55:02;3.57;;;0.83;;
4232;SDS011;2130;48.472;11.934;2023-11-19T08:57:32;3.03;;;0.70;;
4232;SDS011;2130;48.472;11.934;2023-11-19T09:00:00;3.00;;;0.90;;
4232;SDS011;2130;48.472;11.934;2023-11-19T09:02:29;3.23;;;0.70;;
4232;SDS011;2130;48.472;11.934;2023-11-19T09:05:00;3.63;;;0.60;;
4232;SDS011;2130;48.472;11.934;2023-11-19T09:07:29;2.80;;;0.70;;
4232;SDS011;2130;48.472;11.934;2023-11-19T09:09:57;3.13;;;0.70;;
4232;SDS011;2130;48.472;11.934;2023-11-19T09:12:27;2.23;;;0.60;;
4232;SDS011;2130;48.472;11.934;2023-11-19T09:14:55;2.50;;;0.63;;
4232;SDS011;2130;48.472;11.934;2023-11-19T09:17:23;3.00;;;0.60;;
4232;SDS011;2130;48.472;11.934;2023-11-19T09:19:52;2.70;;;0.70;;
4232;SDS011;2130;48.472;11.934;2023-11-19T09:22:20;3.30;;;0.70;;
4232;SDS011;2130;48.472;11.934;2023-11-19T09:24:55;2.97;;;0.70;;
4232;SDS011;2130;48.472;11.934;2023-11-19T09:27:27;2.40;;;0.63;;
4232;SDS011;2130;48.472;11.934;2023-11-19T09:29:56;2.70;;;0.60;;
4232;SDS011;2130;48.472;11.934;2023-11-19T09:32:25;3.07;;;0.70;;
4232;SDS011;2130;48.472;11.934;2023-11-19T09:34:54;2.93;;;0.70;;
4232;SDS011;2130;48.472;11.934;2023-11-19T09:37:23;3.10;;;0.70;;
4232;SDS011;2130;48.472;11.934;2023-11-19T09:39:51;2.80;;;0.80;;
4232;SDS011;2130;48.472;11.934;2023-11-19T09:42:20;3.33;;;1.00;;
4232;SDS011;2130;48.472;11.934;2023-11-19T09:45:00;2.63;;;0.70;;
4232;SDS011;2130;48.472;11.934;2023-11-19T09:47:30;3.00;;;0.60;;
4232;SDS011;2130;48.472;11.934;2023-11-19T09:49:59;2.83;;;0.80;;
4232;SDS011;2130;48.472;11.934;2023-11-19T09:52:28;3.40;;;0.80;;
4232;SDS011;2130;48.472;11.934;2023-11-19T09:54:56;2.87;;;0.80;;
4232;SDS011;2130;48.472;11.934;2023-11-19T09:57:25;2.47;;;0.97;;
4232;SDS011;2130;48.472;11.934;2023-11-19T09:59:53;2.53;;;0.70;;
4232;SDS011;2130;48.472;11.934;2023-11-19T10:02:23;2.30;;;0.60;;
4232;SDS011;2130;48.472;11.934;2023-11-19T10:04:53;2.57;;;0.70;;
4232;SDS011;2130;48.472;11.934;2023-11-19T10:07:23;2.93;;;0.80;;
4232;SDS011;2130;48.472;11.934;2023-11-19T10:09:53;2.67;;;0.80;;
4232;SDS011;2130;48.472;11.934;2023-11-19T10:12:21;2.50;;;0.63;;
4232;SDS011;2130;48.472;11.934;2023-11-19T10:14:49;2.23;;;0.60;;
4232;SDS011;2130;48.472;11.934;2023-11-19T10:17:19;3.43;;;1.00;;
4232;SDS011;2130;48.472;11.934;2023-11-19T10:19:48;2.73;;;0.70;;
4232;SDS011;2130;48.472;11.934;2023-11-19T10:22:17;2.77;;;0.80;;
4232;SDS011;2130;48.472;11.934;2023-11-19T10:24:45;2.73;;;0.73;;
4232;SDS011;2130;48.472;11.934;2023-11-19T10:27:20;2.40;;;0.73;;
4232;SDS011;2130;48.472;11.934;2023-11-19T10:29:48;2.57;;;0.70;;
4232;SDS011;2130;48.472;11.934;2023-11-19T10:32:16;2.00;;;0.60;;
4232;SDS011;2130;48.472;11.934;2023-11-19T10:34:57;1.70;;;0.60;;
4232;SDS011;2130;48.472;11.934;2023-11-19T10:37:33;2.67;;;0.63;;
4232;SDS011;2130;48.472;11.934;2023-11-19T10:40:05;2.43;;;0.70;;
4232;SDS011;2130;48.472;11.934;2023-11-19T10:42:37;3.77;;;0.80;;
4232;SDS011;2130;48.472;11.934;2023-11-19T10:45:06;2.20;;;0.70;;
4232;SDS011;2130;48.472;11.934;2023-11-19T10:47:50;2.20;;;0.70;;
4232;SDS011;2130;48.472;11.934;2023-11-19T10:50:21;2.43;;;0.70;;
4232;SDS011;2130;48.472;11.934;2023-11-19T10:52:50;1.93;;;0.70;;
4232;SDS011;2130;48.472;11.934;2023-11-19T10:55:19;2.10;;;0.70;;
4232;SDS011;2130;48.472;11.934;2023-11-19T10:57:52;2.63;;;0.80;;
4232;SDS011;2130;48.472;11.934;2023-11-19T11:00:34;2.57;;;0.67;;
4232;SDS011;2130;48.472;11.934;2023-11-19T11:03:08;2.70;;;0.87;;
4232;SDS011;2130;48.472;11.934;2023-11-19T11:05:41;2.93;;;0.70;;
4232;SDS011;2130;48.472;11.934;2023-11-19T11:08:15;1.97;;;0.70;;
4232;SDS011;2130;48.472;11.934;2023-11-19T11:10:45;1.60;;;0.60;;
4232;SDS011;2130;48.472;11.934;2023-11-19T11:13:17;2.60;;;0.90;;
4232;SDS011;2130;48.472;11.934;2023-11-19T11:15:46;2.23;;;0.60;;
4232;SDS011;2130;48.472;11.934;2023-11-19T11:18:15;1.90;;;0.67;;
4232;SDS011;2130;48.472;11.934;2023-11-19T11:20:45;1.67;;;0.67;;
4232;SDS011;2130;48.472;11.934;2023-11-19T11:23:31;1.97;;;0.70;;
4232;SDS011;2130;48.472;11.934;2023-11-19T11:26:21;2.67;;;0.70;;
4232;SDS011;2130;48.472;11.934;2023-11-19T11:29:11;2.33;;;0.70;;
4232;SDS011;2130;48.472;11.934;2023-11-19T11:31:47;2.43;;;0.73;;
4232;SDS011;2130;48.472;11.934;2023-11-19T11:37:16;1.90;;;0.60;;
4232;SDS011;2130;48.472;11.934;2023-11-19T11:39:53;1.73;;;0.60;;
4232;SDS011;2130;48.472;11.934;2023-11-19T11:42:32;2.10;;;0.77;;
4232;SDS011;2130;48.472;11.934;2023-11-19T11:45:02;2.00;;;0.73;;
4232;SDS011;2130;48.472;11.934;2023-11-19T11:50:34;2.43;;;1.00;;
4232;SDS011;2130;48.472;11.934;2023-11-19T11:53:14;2.23;;;0.67;;
4232;SDS011;2130;48.472;11.934;2023-11-19T11:55:54;2.27;;;0.70;;
4232;SDS011;2130;48.472;11.934;2023-11-19T11:58:25;2.07;;;0.60;;
4232;SDS011;2130;48.472;11.934;2023-11-19T12:00:56;2.17;;;0.70;;
4232;SDS011;2130;48.472;11.934;2023-11-19T12:03:27;1.90;;;0.70;;
4232;SDS011;2130;48.472;11.934;2023-11-19T12:05:59;1.97;;;0.70;;
4232;SDS011;2130;48.472;11.934;2023-11-19T12:08:29;2.73;;;0.90;;
4232;SDS011;2130;48.472;11.934;2023-11-19T12:10:58;1.87;;;0.70;;
4232;SDS011;2130;48.472;11.934;2023-11-19T12:13:42;2.03;;;0.73;;
4232;SDS011;2130;48.472;11.934;2023-11-19T12:16:14;2.10;;;0.70;;
4232;SDS011;2130;48.472;11.934;2023-11-19T12:18:43;2.03;;;0.70;;
4232;SDS011;2130;48.472;11.934;2023-11-19T12:21:11;1.80;;;0.60;;
4232;SDS011;2130;48.472;11.934;2023-11-19T12:23:56;1.80;;;0.70;;
4232;SDS011;2130;48.472;11.934;2023-11-19T12:26:33;1.87;;;0.60;;
4232;SDS011;2130;48.472;11.934;2023-11-19T12:29:02;1.90;;;0.67;;
4232;SDS011;2130;48.472;11.934;2023-11-19T12:31:35;2.17;;;0.70;;
4232;SDS011;2130;48.472;11.934;2023-11-19T12:34:07;1.90;;;0.63;;
4232;SDS011;2130;48.472;11.934;2023-11-19T12:36:40;1.90;;;0.60;;
4232;SDS011;2130;48.472;11.934;2023-11-19T12:39:13;2.33;;;0.80;;
4232;SDS011;2130;48.472;11.934;2023-11-19T12:41:51;2.20;;;0.60;;
4232;SDS011;2130;48.472;11.934;2023-11-19T12:44:25;2.27;;;0.67;;
4232;SDS011;2130;48.472;11.934;2023-11-19T12:47:00;1.83;;;0.60;;
4232;SDS011;2130;48.472;11.934;2023-11-19T12:49:30;2.20;;;0.70;;
4232;SDS011;2130;48.472;11.934;2023-11-19T12:51:58;2.23;;;0.70;;
4232;SDS011;2130;48.472;11.934;2023-11-19T12:54:34;2.20;;;0.80;;
4232;SDS011;2130;48.472;11.934;2023-11-19T12:57:04;2.50;;;0.80;;
4232;SDS011;2130;48.472;11.934;2023-11-19T12:59:32;2.00;;;0.60;;
4232;SDS011;2130;48.472;11.934;2023-11-19T13:02:01;2.03;;;0.60;;
4232;SDS011;2130;48.472;11.934;2023-11-19T13:04:32;2.10;;;0.70;;
4232;SDS011;2130;48.472;11.934;2023-11-19T13:07:01;2.10;;;0.60;;
4232;SDS011;2130;48.472;11.934;2023-11-19T13:09:32;2.67;;;0.70;;
4232;SDS011;2130;48.472;11.934;2023-11-19T13:12:11;2.20;;;0.77;;
4232;SDS011;2130;48.472;11.934;2023-11-19T13:14:41;2.10;;;0.70;;
4232;SDS011;2130;48.472;11.934;2023-11-19T13:17:14;2.10;;;0.70;;
4232;SDS011;2130;48.472;11.934;2023-11-19T13:19:46;2.00;;;0.60;;
4232;SDS011;2130;48.472;11.934;2023-11-19T13:22:15;2.20;;;0.70;;
4232;SDS011;2130;48.472;11.934;2023-11-19T13:24:43;2.30;;;0.60;;
4232;SDS011;2130;48.472;11.934;2023-11-19T13:27:12;4.80;;;0.80;;
4232;SDS011;2130;48.472;11.934;2023-11-19T13:29:41;2.17;;;0.60;;
4232;SDS011;2130;48.472;11.934;2023-11-19T13:32:09;2.30;;;0.60;;
4232;SDS011;2130;48.472;11.934;2023-11-19T13:34:37;2.20;;;0.60;;
4232;SDS011;2130;48.472;11.934;2023-11-19T13:37:06;2.17;;;0.70;;
4232;SDS011;2130;48.472;11.934;2023-11-19T13:39:34;3.40;;;0.77;;
4232;SDS011;2130;48.472;11.934;2023-11-19T13:42:02;2.13;;;0.70;;
4232;SDS011;2130;48.472;11.934;2023-11-19T13:44:35;2.30;;;0.60;;
4232;SDS011;2130;48.472;11.934;2023-11-19T13:47:03;2.27;;;0.60;;
4232;SDS011;2130;48.472;11.934;2023-11-19T13:49:32;2.17;;;0.70;;
4232;SDS011;2130;48.472;11.934;2023-11-19T13:52:00;2.17;;;0.60;;
4232;SDS011;2130;48.472;11.934;2023-11-19T13:57:21;2.00;;;0.63;;
4232;SDS011;2130;48.472;11.934;2023-11-19T13:59:51;2.50;;;0.60;;
4232;SDS011;2130;48.472;11.934;2023-11-19T14:02:19;2.20;;;0.70;;
4232;SDS011;2130;48.472;11.934;2023-11-19T14:04:48;2.40;;;0.70;;
4232;SDS011;2130;48.472;11.934;2023-11-19T14:07:16;2.33;;;0.70;;
4232;SDS011;2130;48.472;11.934;2023-11-19T14:09:44;2.20;;;0.70;;
4232;SDS011;2130;48.472;11.934;2023-11-19T14:12:13;2.30;;;0.60;;
4232;SDS011;2130;48.472;11.934;2023-11-19T14:14:41;2.03;;;0.60;;
4232;SDS011;2130;48.472;11.934;2023-11-19T14:17:11;2.70;;;0.80;;
4232;SDS011;2130;48.472;11.934;2023-11-19T14:19:40;2.40;;;0.70;;
4232;SDS011;2130;48.472;11.934;2023-11-19T14:22:09;2.60;;;0.67;;
4232;SDS011;2130;48.472;11.934;2023-11-19T14:24:37;2.57;;;0.70;;
4232;SDS011;2130;48.472;11.934;2023-11-19T14:27:07;2.97;;;0.70;;
4232;SDS011;2130;48.472;11.934;2023-11-19T14:29:35;3.30;;;0.80;;
4232;SDS011;2130;48.472;11.934;2023-11-19T14:32:04;2.73;;;0.83;;
4232;SDS011;2130;48.472;11.934;2023-11-19T14:34:34;2.60;;;0.80;;
4232;SDS011;2130;48.472;11.934;2023-11-19T14:37:02;2.47;;;0.70;;
4232;SDS011;2130;48.472;11.934;2023-11-19T14:39:31;2.30;;;0.60;;
4232;SDS011;2130;48.472;11.934;2023-11-19T14:41:59;2.40;;;0.60;;
4232;SDS011;2130;48.472;11.934;2023-11-19T14:44:31;2.77;;;0.73;;
4232;SDS011;2130;48.472;11.934;2023-11-19T14:46:59;2.47;;;0.70;;
4232;SDS011;2130;48.472;11.934;2023-11-19T14:49:29;2.67;;;0.77;;
4232;SDS011;2130;48.472;11.934;2023-11-19T14:51:58;2.77;;;0.60;;
4232;SDS011;2130;48.472;11.934;2023-11-19T14:54:29;2.77;;;0.70;;
4232;SDS011;2130;48.472;11.934;2023-11-19T14:56:58;2.50;;;0.70;;
4232;SDS011;2130;48.472;11.934;2023-11-19T14:59:27;2.73;;;0.80;;
4232;SDS011;2130;48.472;11.934;2023-11-19T15:01:55;2.97;;;0.70;;
4232;SDS011;2130;48.472;11.934;2023-11-19T15:04:24;2.23;;;0.70;;
4232;SDS011;2130;48.472;11.934;2023-11-19T15:06:52;2.60;;;0.80;;
4232;SDS011;2130;48.472;11.934;2023-11-19T15:09:29;2.17;;;0.63;;
4232;SDS011;2130;48.472;11.934;2023-11-19T15:11:59;2.30;;;0.60;;
4232;SDS011;2130;48.472;11.934;2023-11-19T15:14:31;2.70;;;0.80;;
4232;SDS011;2130;48.472;11.934;2023-11-19T15:17:00;2.87;;;0.70;;
4232;SDS011;2130;48.472;11.934;2023-11-19T15:19:28;2.43;;;0.70;;
4232;SDS011;2130;48.472;11.934;2023-11-19T15:21:59;2.73;;;0.70;;
4232;SDS011;2130;48.472;11.934;2023-11-19T15:24:29;2.63;;;0.70;;
4232;SDS011;2130;48.472;11.934;2023-11-19T15:26:57;2.57;;;0.60;;
4232;SDS011;2130;48.472;11.934;2023-11-19T15:29:28;2.37;;;0.70;;